createdAt,value
2016-10-12T00:00:01.009Z,929.76
2016-10-12T00:00:15.508Z,929.78
2016-10-12T00:00:29.984Z,929.73
2016-10-12T00:00:44.527Z,929.8
2016-10-12T00:00:59.098Z,929.79
2016-10-12T00:01:13.683Z,929.74
2016-10-12T00:01:28.152Z,929.73
2016-10-12T00:01:42.732Z,929.72
2016-10-12T00:01:57.210Z,929.76
2016-10-12T00:02:11.693Z,929.72
2016-10-12T00:02:26.116Z,929.74
2016-10-12T00:02:40.686Z,929.74
2016-10-12T00:02:55.138Z,929.74
2016-10-12T00:03:09.596Z,929.74
2016-10-12T00:03:24.248Z,929.75
2016-10-12T00:03:38.733Z,929.77
2016-10-12T00:03:53.173Z,929.76
2016-10-12T00:04:07.632Z,929.79
2016-10-12T00:04:22.049Z,929.81
2016-10-12T00:04:36.503Z,929.83
2016-10-12T00:04:50.899Z,929.77
2016-10-12T00:05:05.449Z,929.84
2016-10-12T00:05:19.865Z,929.82
2016-10-12T00:05:34.499Z,929.84
2016-10-12T00:05:48.859Z,929.83
2016-10-12T00:06:03.278Z,929.78
2016-10-12T00:06:17.842Z,929.81
2016-10-12T00:06:32.395Z,929.84
2016-10-12T00:06:46.936Z,929.81
2016-10-12T00:07:01.463Z,929.8
2016-10-12T00:07:15.955Z,929.76
2016-10-12T00:07:30.562Z,929.8
2016-10-12T00:07:45.006Z,929.8
2016-10-12T00:07:59.489Z,929.76
2016-10-12T00:08:13.960Z,929.75
2016-10-12T00:08:28.467Z,929.77
2016-10-12T00:08:43.107Z,929.77
2016-10-12T00:08:57.503Z,929.71
2016-10-12T00:09:11.969Z,929.74
2016-10-12T00:09:26.490Z,929.72
2016-10-12T00:09:40.921Z,929.74
2016-10-12T00:09:55.458Z,929.71
2016-10-12T00:10:10.056Z,929.7
2016-10-12T00:10:24.825Z,929.73
2016-10-12T00:10:39.391Z,929.72
2016-10-12T00:10:53.873Z,929.69
2016-10-12T00:11:08.373Z,929.67
2016-10-12T00:11:23.218Z,929.67
2016-10-12T00:11:37.765Z,929.66
2016-10-12T00:11:52.210Z,929.63
2016-10-12T00:12:06.715Z,929.6
2016-10-12T00:12:21.680Z,929.59
2016-10-12T00:12:36.218Z,929.58
2016-10-12T00:12:51.002Z,929.53
2016-10-12T00:13:05.679Z,929.54
2016-10-12T00:13:20.283Z,929.51
2016-10-12T00:13:34.997Z,929.48
2016-10-12T00:13:49.565Z,929.43
2016-10-12T00:14:04.109Z,929.41
2016-10-12T00:14:18.610Z,929.37
2016-10-12T00:14:33.287Z,929.4
2016-10-12T00:14:47.938Z,929.4
2016-10-12T00:15:02.576Z,929.39
2016-10-12T00:15:17.074Z,929.39
2016-10-12T00:15:31.787Z,929.38
2016-10-12T00:15:46.202Z,929.4
2016-10-12T00:16:00.926Z,929.39
2016-10-12T00:16:16.160Z,929.41
2016-10-12T00:16:33.284Z,929.43
2016-10-12T00:16:52.523Z,929.42
2016-10-12T00:17:11.913Z,929.45
2016-10-12T00:17:27.733Z,929.42
2016-10-12T00:17:43.034Z,929.46
2016-10-12T00:17:58.560Z,929.46
2016-10-12T00:18:13.313Z,929.49
2016-10-12T00:18:27.740Z,929.51
2016-10-12T00:18:42.389Z,929.49
2016-10-12T00:18:56.997Z,929.5
2016-10-12T00:19:11.452Z,929.53
2016-10-12T00:19:25.845Z,929.55
2016-10-12T00:19:40.444Z,929.58
2016-10-12T00:19:54.835Z,929.58
2016-10-12T00:20:09.419Z,929.65
2016-10-12T00:20:23.934Z,929.63
2016-10-12T00:20:38.409Z,929.64
2016-10-12T00:20:53.077Z,929.66
2016-10-12T00:21:07.661Z,929.71
2016-10-12T00:21:22.263Z,929.69
2016-10-12T00:21:36.682Z,929.71
2016-10-12T00:21:51.305Z,929.7
2016-10-12T00:22:05.818Z,929.7
2016-10-12T00:22:20.406Z,929.78
2016-10-12T00:22:34.932Z,929.75
2016-10-12T00:22:49.466Z,929.78
2016-10-12T00:23:03.941Z,929.77
2016-10-12T00:23:18.637Z,929.75
2016-10-12T00:23:33.099Z,929.78
2016-10-12T00:23:47.490Z,929.76
2016-10-12T00:24:02.028Z,929.74
2016-10-12T00:24:16.856Z,929.75
2016-10-12T00:24:31.379Z,929.72
2016-10-12T00:24:46.127Z,929.7
2016-10-12T00:25:00.545Z,929.69
2016-10-12T00:25:14.992Z,929.66
2016-10-12T00:25:29.477Z,929.68
2016-10-12T00:25:44.123Z,929.62
2016-10-12T00:25:58.525Z,929.63
2016-10-12T00:26:13.054Z,929.62
2016-10-12T00:26:28.023Z,929.59
2016-10-12T00:26:42.531Z,929.6
2016-10-12T00:26:57.034Z,929.58
2016-10-12T00:27:11.727Z,929.55
2016-10-12T00:27:27.004Z,929.52
2016-10-12T00:27:41.471Z,929.52
2016-10-12T00:27:56.088Z,929.49
2016-10-12T00:28:10.760Z,929.44
2016-10-12T00:28:25.419Z,929.47
2016-10-12T00:28:40.117Z,929.46
2016-10-12T00:28:54.691Z,929.39
2016-10-12T00:29:09.197Z,929.4
2016-10-12T00:29:23.624Z,929.37
2016-10-12T00:29:38.004Z,929.36
2016-10-12T00:29:52.576Z,929.36
2016-10-12T00:30:07.226Z,929.36
2016-10-12T00:30:21.789Z,929.33
2016-10-12T00:30:36.602Z,929.31
2016-10-12T00:30:51.530Z,929.26
2016-10-12T00:31:06.326Z,929.28
2016-10-12T00:31:20.716Z,929.29
2016-10-12T00:31:35.170Z,929.29
2016-10-12T00:31:49.695Z,929.24
2016-10-12T00:32:04.218Z,929.24
2016-10-12T00:32:18.566Z,929.24
2016-10-12T00:32:33.075Z,929.22
2016-10-12T00:32:47.564Z,929.2
2016-10-12T00:33:01.979Z,929.2
2016-10-12T00:33:16.559Z,929.17
2016-10-12T00:33:31.135Z,929.22
2016-10-12T00:33:45.543Z,929.18
2016-10-12T00:34:00.161Z,929.17
2016-10-12T00:34:14.650Z,929.15
2016-10-12T00:34:29.174Z,929.16
2016-10-12T00:34:43.679Z,929.14
2016-10-12T00:34:58.337Z,929.14
2016-10-12T00:35:12.988Z,929.16
2016-10-12T00:35:27.536Z,929.14
2016-10-12T00:35:42.032Z,929.14
2016-10-12T00:35:56.560Z,929.16
2016-10-12T00:36:11.304Z,929.12
2016-10-12T00:36:25.931Z,929.15
2016-10-12T00:36:40.477Z,929.16
2016-10-12T00:36:55.064Z,929.18
2016-10-12T00:37:09.932Z,929.19
2016-10-12T00:37:24.508Z,929.22
2016-10-12T00:37:39.192Z,929.25
2016-10-12T00:37:53.858Z,929.24
2016-10-12T00:38:08.526Z,929.27
2016-10-12T00:38:23.086Z,929.29
2016-10-12T00:38:37.964Z,929.29
2016-10-12T00:38:52.869Z,929.31
2016-10-12T00:39:07.554Z,929.36
2016-10-12T00:39:22.081Z,929.35
2016-10-12T00:39:36.773Z,929.34
2016-10-12T00:39:51.314Z,929.34
2016-10-12T00:40:05.895Z,929.34
2016-10-12T00:40:20.554Z,929.37
2016-10-12T00:40:35.263Z,929.42
2016-10-12T00:40:50.185Z,929.4
2016-10-12T00:41:04.805Z,929.44
2016-10-12T00:41:19.247Z,929.45
2016-10-12T00:41:33.839Z,929.45
2016-10-12T00:41:48.434Z,929.46
2016-10-12T00:42:02.943Z,929.45
2016-10-12T00:42:17.463Z,929.49
2016-10-12T00:42:32.499Z,929.52
2016-10-12T00:42:47.331Z,929.55
2016-10-12T00:43:01.822Z,929.53
2016-10-12T00:43:16.449Z,929.54
2016-10-12T00:43:31.023Z,929.53
2016-10-12T00:43:45.602Z,929.54
2016-10-12T00:44:00.224Z,929.55
2016-10-12T00:44:14.876Z,929.58
2016-10-12T00:44:29.562Z,929.57
2016-10-12T00:44:44.423Z,929.58
2016-10-12T00:44:59.323Z,929.59
2016-10-12T00:45:14.216Z,929.6
2016-10-12T00:45:29.049Z,929.58
2016-10-12T00:45:43.943Z,929.6
2016-10-12T00:45:58.405Z,929.6
2016-10-12T00:46:12.950Z,929.6
2016-10-12T00:46:27.589Z,929.59
2016-10-12T00:46:42.357Z,929.6
2016-10-12T00:46:56.950Z,929.59
2016-10-12T00:47:11.544Z,929.56
2016-10-12T00:47:26.214Z,929.61
2016-10-12T00:47:40.724Z,929.57
2016-10-12T00:47:55.275Z,929.58
2016-10-12T00:48:09.686Z,929.58
2016-10-12T00:48:24.491Z,929.61
2016-10-12T00:48:39.147Z,929.6
2016-10-12T00:48:53.857Z,929.59
2016-10-12T00:49:08.447Z,929.6
2016-10-12T00:49:23.051Z,929.59
2016-10-12T00:49:37.859Z,929.59
2016-10-12T00:49:52.499Z,929.62
2016-10-12T00:50:07.143Z,929.61
2016-10-12T00:50:22.033Z,929.58
2016-10-12T00:50:36.755Z,929.59
2016-10-12T00:50:51.455Z,929.62
2016-10-12T00:51:05.994Z,929.6
2016-10-12T00:51:20.589Z,929.59
2016-10-12T00:51:35.481Z,929.58
2016-10-12T00:51:50.227Z,929.63
2016-10-12T00:52:04.869Z,929.59
2016-10-12T00:52:19.537Z,929.59
2016-10-12T00:52:34.023Z,929.58
2016-10-12T00:52:48.814Z,929.61
2016-10-12T00:53:03.300Z,929.66
2016-10-12T00:53:18.554Z,929.61
2016-10-12T00:53:33.111Z,929.59
2016-10-12T00:53:48.310Z,929.57
2016-10-12T00:54:03.204Z,929.55
2016-10-12T00:54:18.310Z,929.52
2016-10-12T00:54:33.140Z,929.53
2016-10-12T00:54:48.018Z,929.51
2016-10-12T00:55:02.899Z,929.53
2016-10-12T00:55:17.841Z,929.53
2016-10-12T00:55:32.790Z,929.53
2016-10-12T00:55:47.691Z,929.5
2016-10-12T00:56:02.433Z,929.47
2016-10-12T00:56:17.040Z,929.45
2016-10-12T00:56:31.698Z,929.48
2016-10-12T00:56:46.306Z,929.46
2016-10-12T00:57:01.182Z,929.43
2016-10-12T00:57:16.030Z,929.4
2016-10-12T00:57:30.951Z,929.44
2016-10-12T00:57:46.198Z,929.42
2016-10-12T00:58:00.951Z,929.4
2016-10-12T00:58:15.726Z,929.4
2016-10-12T00:58:30.340Z,929.4
2016-10-12T00:58:45.033Z,929.35
2016-10-12T00:58:59.567Z,929.38
2016-10-12T00:59:14.209Z,929.35
2016-10-12T00:59:28.969Z,929.38
2016-10-12T00:59:43.674Z,929.31
2016-10-12T00:59:58.248Z,929.34
2016-10-12T01:00:12.831Z,929.34
2016-10-12T01:00:27.537Z,929.33
2016-10-12T01:00:42.599Z,929.35
2016-10-12T01:00:57.519Z,929.32
2016-10-12T01:01:12.535Z,929.34
2016-10-12T01:01:27.537Z,929.34
2016-10-12T01:01:42.500Z,929.33
2016-10-12T01:01:57.455Z,929.32
2016-10-12T01:02:12.366Z,929.3
2016-10-12T01:02:27.225Z,929.33
2016-10-12T01:02:41.760Z,929.33
2016-10-12T01:02:56.404Z,929.36
2016-10-12T01:03:10.979Z,929.34
2016-10-12T01:03:25.513Z,929.36
2016-10-12T01:03:40.063Z,929.35
2016-10-12T01:03:54.937Z,929.34
2016-10-12T01:04:09.468Z,929.34
2016-10-12T01:04:24.146Z,929.34
2016-10-12T01:04:38.662Z,929.33
2016-10-12T01:04:53.535Z,929.33
2016-10-12T01:05:08.115Z,929.32
2016-10-12T01:05:22.958Z,929.35
2016-10-12T01:05:37.770Z,929.33
2016-10-12T01:05:52.526Z,929.32
2016-10-12T01:06:07.118Z,929.32
2016-10-12T01:06:21.717Z,929.35
2016-10-12T01:06:36.570Z,929.31
2016-10-12T01:06:51.493Z,929.31
2016-10-12T01:07:06.231Z,929.36
2016-10-12T01:07:21.290Z,929.35
2016-10-12T01:07:35.943Z,929.32
2016-10-12T01:07:50.825Z,929.34
2016-10-12T01:08:05.448Z,929.35
2016-10-12T01:08:20.217Z,929.33
2016-10-12T01:08:34.830Z,929.33
2016-10-12T01:08:49.752Z,929.36
2016-10-12T01:09:04.371Z,929.35
2016-10-12T01:09:19.105Z,929.35
2016-10-12T01:09:33.894Z,929.32
2016-10-12T01:09:48.805Z,929.35
2016-10-12T01:10:03.478Z,929.34
2016-10-12T01:10:18.347Z,929.32
2016-10-12T01:10:32.912Z,929.3
2016-10-12T01:10:47.745Z,929.34
2016-10-12T01:11:02.418Z,929.34
2016-10-12T01:11:17.311Z,929.36
2016-10-12T01:11:32.042Z,929.35
2016-10-12T01:11:46.784Z,929.34
2016-10-12T01:12:01.574Z,929.35
2016-10-12T01:12:16.288Z,929.35
2016-10-12T01:12:30.761Z,929.36
2016-10-12T01:12:45.807Z,929.38
2016-10-12T01:13:00.500Z,929.37
2016-10-12T01:13:15.329Z,929.37
2016-10-12T01:13:30.519Z,929.41
2016-10-12T01:13:45.104Z,929.41
2016-10-12T01:14:00.028Z,929.4
2016-10-12T01:14:14.755Z,929.44
2016-10-12T01:14:29.469Z,929.43
2016-10-12T01:14:44.174Z,929.46
2016-10-12T01:14:58.739Z,929.47
2016-10-12T01:15:14.859Z,929.46
2016-10-12T01:15:29.444Z,929.5
2016-10-12T01:15:44.659Z,929.49
2016-10-12T01:15:59.325Z,929.54
2016-10-12T01:16:13.931Z,929.55
2016-10-12T01:16:28.424Z,929.53
2016-10-12T01:16:43.139Z,929.56
2016-10-12T01:16:57.846Z,929.55
2016-10-12T01:17:12.740Z,929.57
2016-10-12T01:17:27.298Z,929.57
2016-10-12T01:17:41.847Z,929.58
2016-10-12T01:17:56.506Z,929.59
2016-10-12T01:18:11.162Z,929.61
2016-10-12T01:18:25.808Z,929.57
2016-10-12T01:18:40.458Z,929.62
2016-10-12T01:18:55.098Z,929.62
2016-10-12T01:19:09.914Z,929.6
2016-10-12T01:19:24.900Z,929.61
2016-10-12T01:19:39.928Z,929.61
2016-10-12T01:19:54.955Z,929.62
2016-10-12T01:20:09.439Z,929.59
2016-10-12T01:20:24.043Z,929.63
2016-10-12T01:20:38.432Z,929.66
2016-10-12T01:20:53.020Z,929.65
2016-10-12T01:21:07.594Z,929.64
2016-10-12T01:21:22.193Z,929.67
2016-10-12T01:21:36.823Z,929.67
2016-10-12T01:21:51.352Z,929.7
2016-10-12T01:22:05.924Z,929.65
2016-10-12T01:22:20.486Z,929.71
2016-10-12T01:22:35.117Z,929.71
2016-10-12T01:22:49.790Z,929.67
2016-10-12T01:23:04.277Z,929.69
2016-10-12T01:23:18.879Z,929.69
2016-10-12T01:23:33.377Z,929.75
2016-10-12T01:23:47.997Z,929.68
2016-10-12T01:24:02.446Z,929.75
2016-10-12T01:24:17.062Z,929.73
2016-10-12T01:24:31.603Z,929.73
2016-10-12T01:24:46.081Z,929.74
2016-10-12T01:25:00.770Z,929.76
2016-10-12T01:25:15.156Z,929.74
2016-10-12T01:25:29.686Z,929.74
2016-10-12T01:25:44.280Z,929.71
2016-10-12T01:25:58.713Z,929.72
2016-10-12T01:26:13.233Z,929.72
2016-10-12T01:26:27.835Z,929.75
2016-10-12T01:26:42.242Z,929.76
2016-10-12T01:26:56.771Z,929.74
2016-10-12T01:27:11.449Z,929.77
2016-10-12T01:27:26.097Z,929.76
2016-10-12T01:27:40.683Z,929.76
2016-10-12T01:27:55.780Z,929.75
2016-10-12T01:28:10.274Z,929.73
2016-10-12T01:28:24.760Z,929.73
2016-10-12T01:28:39.254Z,929.72
2016-10-12T01:28:53.753Z,929.7
2016-10-12T01:29:08.250Z,929.77
2016-10-12T01:29:23.012Z,929.71
2016-10-12T01:29:37.489Z,929.72
2016-10-12T01:29:52.041Z,929.75
2016-10-12T01:30:06.485Z,929.72
2016-10-12T01:30:20.999Z,929.72
2016-10-12T01:30:35.521Z,929.72
2016-10-12T01:30:50.025Z,929.72
2016-10-12T01:31:04.663Z,929.71
2016-10-12T01:31:19.336Z,929.71
2016-10-12T01:31:33.965Z,929.71
2016-10-12T01:31:48.490Z,929.7
2016-10-12T01:32:02.976Z,929.68
2016-10-12T01:32:17.618Z,929.7
2016-10-12T01:32:32.268Z,929.63
2016-10-12T01:32:46.885Z,929.66
2016-10-12T01:33:01.576Z,929.62
2016-10-12T01:33:16.059Z,929.63
2016-10-12T01:33:30.722Z,929.61
2016-10-12T01:33:45.243Z,929.62
2016-10-12T01:33:59.698Z,929.55
2016-10-12T01:34:14.304Z,929.57
2016-10-12T01:34:28.960Z,929.56
2016-10-12T01:34:43.538Z,929.58
2016-10-12T01:34:58.042Z,929.53
2016-10-12T01:35:12.549Z,929.51
2016-10-12T01:35:26.905Z,929.54
2016-10-12T01:35:41.840Z,929.51
2016-10-12T01:35:56.598Z,929.48
2016-10-12T01:36:11.188Z,929.48
2016-10-12T01:36:25.655Z,929.47
2016-10-12T01:36:40.121Z,929.5
2016-10-12T01:36:55.198Z,929.48
2016-10-12T01:37:09.845Z,929.51
2016-10-12T01:37:24.491Z,929.52
2016-10-12T01:37:39.131Z,929.5
2016-10-12T01:37:53.716Z,929.51
2016-10-12T01:38:08.207Z,929.55
2016-10-12T01:38:22.700Z,929.55
2016-10-12T01:38:37.064Z,929.54
2016-10-12T01:38:51.844Z,929.53
2016-10-12T01:39:06.753Z,929.56
2016-10-12T01:39:21.459Z,929.57
2016-10-12T01:39:36.139Z,929.58
2016-10-12T01:39:50.861Z,929.56
2016-10-12T01:40:05.700Z,929.62
2016-10-12T01:40:20.488Z,929.63
2016-10-12T01:40:35.251Z,929.63
2016-10-12T01:40:50.252Z,929.64
2016-10-12T01:41:04.964Z,929.63
2016-10-12T01:41:19.787Z,929.63
2016-10-12T01:41:34.494Z,929.67
2016-10-12T01:41:49.071Z,929.68
2016-10-12T01:42:03.787Z,929.64
2016-10-12T01:42:18.303Z,929.65
2016-10-12T01:42:32.767Z,929.64
2016-10-12T01:42:47.292Z,929.67
2016-10-12T01:43:02.280Z,929.7
2016-10-12T01:43:16.761Z,929.69
2016-10-12T01:43:31.365Z,929.7
2016-10-12T01:43:46.250Z,929.7
2016-10-12T01:44:00.953Z,929.69
2016-10-12T01:44:15.548Z,929.73
2016-10-12T01:44:30.196Z,929.68
2016-10-12T01:44:44.767Z,929.7
2016-10-12T01:44:59.268Z,929.69
2016-10-12T01:45:13.876Z,929.67
2016-10-12T01:45:28.437Z,929.7
2016-10-12T01:45:43.030Z,929.74
2016-10-12T01:45:57.377Z,929.69
2016-10-12T01:46:11.839Z,929.72
2016-10-12T01:46:26.189Z,929.73
2016-10-12T01:46:40.589Z,929.75
2016-10-12T01:46:55.070Z,929.73
2016-10-12T01:47:09.465Z,929.73
2016-10-12T01:47:23.885Z,929.74
2016-10-12T01:47:38.313Z,929.7
2016-10-12T01:47:52.718Z,929.72
2016-10-12T01:48:07.022Z,929.73
2016-10-12T01:48:21.486Z,929.7
2016-10-12T01:48:36.022Z,929.7
2016-10-12T01:48:50.419Z,929.71
2016-10-12T01:49:04.750Z,929.72
2016-10-12T01:49:19.204Z,929.73
2016-10-12T01:49:33.812Z,929.7
2016-10-12T01:49:48.521Z,929.73
2016-10-12T01:50:03.038Z,929.69
2016-10-12T01:50:17.608Z,929.66
2016-10-12T01:50:32.046Z,929.68
2016-10-12T01:50:46.543Z,929.7
2016-10-12T01:51:00.926Z,929.63
2016-10-12T01:51:15.384Z,929.66
2016-10-12T01:51:29.991Z,929.67
2016-10-12T01:51:44.536Z,929.67
2016-10-12T01:51:59.150Z,929.62
2016-10-12T01:52:13.657Z,929.6
2016-10-12T01:52:28.103Z,929.62
2016-10-12T01:52:42.544Z,929.66
2016-10-12T01:52:57.007Z,929.64
2016-10-12T01:53:11.432Z,929.62
2016-10-12T01:53:25.915Z,929.64
2016-10-12T01:53:40.340Z,929.58
2016-10-12T01:53:54.731Z,929.6
2016-10-12T01:54:09.514Z,929.65
2016-10-12T01:54:23.940Z,929.64
2016-10-12T01:54:38.428Z,929.66
2016-10-12T01:54:52.830Z,929.67
2016-10-12T01:55:07.367Z,929.65
2016-10-12T01:55:21.821Z,929.68
2016-10-12T01:55:36.284Z,929.63
2016-10-12T01:55:50.808Z,929.66
2016-10-12T01:56:05.256Z,929.67
2016-10-12T01:56:19.735Z,929.69
2016-10-12T01:56:34.198Z,929.68
2016-10-12T01:56:48.602Z,929.7
2016-10-12T01:57:03.117Z,929.74
2016-10-12T01:57:17.518Z,929.69
2016-10-12T01:57:31.953Z,929.73
2016-10-12T01:57:46.497Z,929.73
2016-10-12T01:58:01.041Z,929.73
2016-10-12T01:58:15.890Z,929.75
2016-10-12T01:58:30.267Z,929.75
2016-10-12T01:58:44.805Z,929.77
2016-10-12T01:58:59.292Z,929.76
2016-10-12T01:59:13.699Z,929.77
2016-10-12T01:59:28.140Z,929.77
2016-10-12T01:59:42.580Z,929.77
2016-10-12T01:59:57.104Z,929.76
2016-10-12T02:00:11.662Z,929.8
2016-10-12T02:00:26.277Z,929.78
2016-10-12T02:00:40.783Z,929.81
2016-10-12T02:00:55.200Z,929.8
2016-10-12T02:01:09.700Z,929.79
2016-10-12T02:01:24.227Z,929.79
2016-10-12T02:01:38.602Z,929.78
2016-10-12T02:01:52.975Z,929.82
2016-10-12T02:02:07.431Z,929.83
2016-10-12T02:02:21.903Z,929.79
2016-10-12T02:02:36.355Z,929.8
2016-10-12T02:02:50.746Z,929.8
2016-10-12T02:03:05.139Z,929.81
2016-10-12T02:03:19.523Z,929.79
2016-10-12T02:03:33.953Z,929.81
2016-10-12T02:03:48.369Z,929.83
2016-10-12T02:04:02.737Z,929.82
2016-10-12T02:04:17.142Z,929.86
2016-10-12T02:04:31.592Z,929.8
2016-10-12T02:04:45.974Z,929.77
2016-10-12T02:05:00.400Z,929.82
2016-10-12T02:05:14.889Z,929.77
2016-10-12T02:05:29.406Z,929.82
2016-10-12T02:05:43.845Z,929.78
2016-10-12T02:05:58.263Z,929.82
2016-10-12T02:06:12.706Z,929.75
2016-10-12T02:06:27.137Z,929.76
2016-10-12T02:06:41.553Z,929.78
2016-10-12T02:06:55.946Z,929.74
2016-10-12T02:07:10.391Z,929.76
2016-10-12T02:07:24.802Z,929.79
2016-10-12T02:07:39.151Z,929.75
2016-10-12T02:07:53.538Z,929.76
2016-10-12T02:08:07.881Z,929.73
2016-10-12T02:08:22.373Z,929.72
2016-10-12T02:08:36.821Z,929.73
2016-10-12T02:08:51.233Z,929.7
2016-10-12T02:09:05.688Z,929.73
2016-10-12T02:09:20.129Z,929.75
2016-10-12T02:09:34.579Z,929.74
2016-10-12T02:09:48.961Z,929.72
2016-10-12T02:10:03.382Z,929.75
2016-10-12T02:10:17.757Z,929.72
2016-10-12T02:10:32.164Z,929.72
2016-10-12T02:10:46.612Z,929.73
2016-10-12T02:11:01.052Z,929.71
2016-10-12T02:11:15.517Z,929.72
2016-10-12T02:11:29.996Z,929.73
2016-10-12T02:11:44.387Z,929.74
2016-10-12T02:11:58.785Z,929.74
2016-10-12T02:12:13.282Z,929.75
2016-10-12T02:12:27.687Z,929.76
2016-10-12T02:12:42.124Z,929.73
2016-10-12T02:12:56.618Z,929.72
2016-10-12T02:13:11.002Z,929.74
2016-10-12T02:13:25.940Z,929.72
2016-10-12T02:13:40.397Z,929.72
2016-10-12T02:13:54.882Z,929.72
2016-10-12T02:14:09.235Z,929.72
2016-10-12T02:14:23.588Z,929.73
2016-10-12T02:14:38.044Z,929.7
2016-10-12T02:14:52.508Z,929.72
2016-10-12T02:15:06.967Z,929.72
2016-10-12T02:15:21.499Z,929.67
2016-10-12T02:15:35.921Z,929.68
2016-10-12T02:15:50.383Z,929.65
2016-10-12T02:16:04.789Z,929.67
2016-10-12T02:16:19.243Z,929.63
2016-10-12T02:16:33.649Z,929.63
2016-10-12T02:16:48.130Z,929.64
2016-10-12T02:17:02.612Z,929.66
2016-10-12T02:17:17.017Z,929.65
2016-10-12T02:17:31.515Z,929.63
2016-10-12T02:17:45.963Z,929.63
2016-10-12T02:18:00.349Z,929.66
2016-10-12T02:18:14.821Z,929.68
2016-10-12T02:18:29.256Z,929.65
2016-10-12T02:18:43.610Z,929.66
2016-10-12T02:18:57.961Z,929.68
2016-10-12T02:19:12.475Z,929.66
2016-10-12T02:19:26.918Z,929.67
2016-10-12T02:19:41.466Z,929.65
2016-10-12T02:19:55.860Z,929.7
2016-10-12T02:20:10.266Z,929.66
2016-10-12T02:20:24.680Z,929.66
2016-10-12T02:20:39.088Z,929.67
2016-10-12T02:20:53.477Z,929.67
2016-10-12T02:21:07.970Z,929.63
2016-10-12T02:21:22.440Z,929.62
2016-10-12T02:21:36.935Z,929.64
2016-10-12T02:21:51.354Z,929.61
2016-10-12T02:22:05.652Z,929.59
2016-10-12T02:22:20.095Z,929.63
2016-10-12T02:22:34.543Z,929.64
2016-10-12T02:22:49.054Z,929.62
2016-10-12T02:23:03.453Z,929.59
2016-10-12T02:23:17.828Z,929.58
2016-10-12T02:23:32.257Z,929.59
2016-10-12T02:23:46.720Z,929.61
2016-10-12T02:24:01.152Z,929.59
2016-10-12T02:24:15.659Z,929.57
2016-10-12T02:24:30.108Z,929.55
2016-10-12T02:24:44.547Z,929.58
2016-10-12T02:24:58.934Z,929.56
2016-10-12T02:25:13.417Z,929.6
2016-10-12T02:25:27.725Z,929.6
2016-10-12T02:25:42.169Z,929.59
2016-10-12T02:25:56.590Z,929.62
2016-10-12T02:26:10.972Z,929.61
2016-10-12T02:26:25.420Z,929.6
2016-10-12T02:26:39.885Z,929.6
2016-10-12T02:26:54.341Z,929.61
2016-10-12T02:27:08.711Z,929.61
2016-10-12T02:27:23.075Z,929.63
2016-10-12T02:27:37.508Z,929.61
2016-10-12T02:27:51.902Z,929.65
2016-10-12T02:28:06.411Z,929.61
2016-10-12T02:28:20.871Z,929.66
2016-10-12T02:28:35.511Z,929.66
2016-10-12T02:28:49.999Z,929.69
2016-10-12T02:29:04.444Z,929.61
2016-10-12T02:29:18.945Z,929.62
2016-10-12T02:29:33.373Z,929.6
2016-10-12T02:29:47.793Z,929.64
2016-10-12T02:30:02.206Z,929.62
2016-10-12T02:30:16.567Z,929.63
2016-10-12T02:30:31.016Z,929.63
2016-10-12T02:30:45.554Z,929.59
2016-10-12T02:31:00.042Z,929.6
2016-10-12T02:31:14.472Z,929.58
2016-10-12T02:31:28.987Z,929.62
2016-10-12T02:31:43.447Z,929.63
2016-10-12T02:31:57.924Z,929.62
2016-10-12T02:32:12.319Z,929.61
2016-10-12T02:32:26.796Z,929.59
2016-10-12T02:32:41.245Z,929.59
2016-10-12T02:32:55.792Z,929.57
2016-10-12T02:33:10.105Z,929.61
2016-10-12T02:33:24.613Z,929.6
2016-10-12T02:33:39.029Z,929.62
2016-10-12T02:33:53.511Z,929.61
2016-10-12T02:34:08.003Z,929.59
2016-10-12T02:34:22.399Z,929.62
2016-10-12T02:34:36.894Z,929.61
2016-10-12T02:34:51.346Z,929.62
2016-10-12T02:35:05.818Z,929.66
2016-10-12T02:35:20.217Z,929.64
2016-10-12T02:35:34.688Z,929.63
2016-10-12T02:35:49.018Z,929.61
2016-10-12T02:36:03.432Z,929.64
2016-10-12T02:36:17.917Z,929.64
2016-10-12T02:36:32.363Z,929.61
2016-10-12T02:36:46.773Z,929.61
2016-10-12T02:37:01.196Z,929.62
2016-10-12T02:37:15.554Z,929.61
2016-10-12T02:37:29.957Z,929.6
2016-10-12T02:37:44.471Z,929.6
2016-10-12T02:37:58.985Z,929.6
2016-10-12T02:38:13.390Z,929.59
2016-10-12T02:38:27.776Z,929.61
2016-10-12T02:38:42.249Z,929.58
2016-10-12T02:38:56.699Z,929.6
2016-10-12T02:39:11.095Z,929.61
2016-10-12T02:39:25.541Z,929.59
2016-10-12T02:39:40.006Z,929.58
2016-10-12T02:39:54.451Z,929.59
2016-10-12T02:40:08.929Z,929.62
2016-10-12T02:40:23.429Z,929.62
2016-10-12T02:40:37.834Z,929.59
2016-10-12T02:40:52.236Z,929.59
2016-10-12T02:41:06.613Z,929.56
2016-10-12T02:41:21.071Z,929.6
2016-10-12T02:41:35.444Z,929.61
2016-10-12T02:41:49.836Z,929.6
2016-10-12T02:42:04.250Z,929.6
2016-10-12T02:42:18.623Z,929.59
2016-10-12T02:42:33.051Z,929.62
2016-10-12T02:42:47.410Z,929.56
2016-10-12T02:43:01.820Z,929.58
2016-10-12T02:43:16.343Z,929.59
2016-10-12T02:43:30.780Z,929.58
2016-10-12T02:43:45.632Z,929.58
2016-10-12T02:43:59.948Z,929.55
2016-10-12T02:44:14.403Z,929.53
2016-10-12T02:44:28.782Z,929.55
2016-10-12T02:44:43.178Z,929.51
2016-10-12T02:44:57.576Z,929.55
2016-10-12T02:45:11.901Z,929.57
2016-10-12T02:45:26.215Z,929.55
2016-10-12T02:45:40.589Z,929.52
2016-10-12T02:45:54.977Z,929.52
2016-10-12T02:46:09.395Z,929.5
2016-10-12T02:46:23.755Z,929.5
2016-10-12T02:46:38.054Z,929.49
2016-10-12T02:46:52.487Z,929.51
2016-10-12T02:47:06.883Z,929.48
2016-10-12T02:47:21.264Z,929.48
2016-10-12T02:47:35.655Z,929.46
2016-10-12T02:47:50.045Z,929.48
2016-10-12T02:48:04.445Z,929.46
2016-10-12T02:48:18.828Z,929.44
2016-10-12T02:48:33.291Z,929.44
2016-10-12T02:48:47.662Z,929.43
2016-10-12T02:49:02.072Z,929.43
2016-10-12T02:49:16.458Z,929.38
2016-10-12T02:49:30.794Z,929.39
2016-10-12T02:49:45.191Z,929.34
2016-10-12T02:49:59.673Z,929.36
2016-10-12T02:50:14.025Z,929.38
2016-10-12T02:50:28.420Z,929.37
2016-10-12T02:50:42.814Z,929.35
2016-10-12T02:50:57.220Z,929.38
2016-10-12T02:51:11.589Z,929.37
2016-10-12T02:51:25.984Z,929.36
2016-10-12T02:51:40.366Z,929.4
2016-10-12T02:51:54.721Z,929.39
2016-10-12T02:52:09.105Z,929.38
2016-10-12T02:52:23.470Z,929.38
2016-10-12T02:52:37.809Z,929.37
2016-10-12T02:52:52.164Z,929.39
2016-10-12T02:53:06.577Z,929.37
2016-10-12T02:53:20.919Z,929.35
2016-10-12T02:53:35.270Z,929.39
2016-10-12T02:53:49.636Z,929.38
2016-10-12T02:54:04.080Z,929.38
2016-10-12T02:54:18.497Z,929.35
2016-10-12T02:54:32.942Z,929.39
2016-10-12T02:54:47.388Z,929.38
2016-10-12T02:55:01.746Z,929.4
2016-10-12T02:55:16.080Z,929.39
2016-10-12T02:55:30.446Z,929.39
2016-10-12T02:55:44.811Z,929.4
2016-10-12T02:55:59.169Z,929.36
2016-10-12T02:56:13.575Z,929.39
2016-10-12T02:56:27.944Z,929.39
2016-10-12T02:56:42.321Z,929.38
2016-10-12T02:56:56.673Z,929.35
2016-10-12T02:57:11.053Z,929.4
2016-10-12T02:57:25.453Z,929.39
2016-10-12T02:57:39.822Z,929.38
2016-10-12T02:57:54.193Z,929.38
2016-10-12T02:58:08.544Z,929.4
2016-10-12T02:58:23.004Z,929.39
2016-10-12T02:58:37.350Z,929.38
2016-10-12T02:58:52.544Z,929.38
2016-10-12T02:59:07.002Z,929.33
2016-10-12T02:59:21.441Z,929.38
2016-10-12T02:59:35.819Z,929.37
2016-10-12T02:59:50.154Z,929.36
2016-10-12T03:00:04.540Z,929.35
2016-10-12T03:00:18.910Z,929.39
2016-10-12T03:00:33.250Z,929.39
2016-10-12T03:00:47.602Z,929.35
2016-10-12T03:01:02.043Z,929.35
2016-10-12T03:01:16.466Z,929.35
2016-10-12T03:01:30.846Z,929.33
2016-10-12T03:01:45.269Z,929.34
2016-10-12T03:01:59.699Z,929.32
2016-10-12T03:02:14.076Z,929.36
2016-10-12T03:02:28.512Z,929.3